Shin Mei Maru — JG5617 — position and weather

sailwx.info

Track history (hours):
 
Tides and Currents Weather Stations Pressure Air Temp Water Temp Dewpoint Dewpoint Depression Visibility Wind Speed Wind Dir Waves Ship Positions

Shin Mei Maru

Last reported at 2017-Feb-20 14:30 UTC. Time now 2017-Feb-23 02:43 UTC.
Position N 34°50' E 139°53'.

Length 160 m; draft 7 m.

Type: Cargo ship. MMSI: 431100922.

Date/timePositionNaut miles runAvg speedWind from/ knotsBaromVisibWave heightAir tempDewpointWater temp
2017-Feb-20 14:30N 34°50' E 139°53'1314.3
2017-Feb-20 13:33N 35°01' E 139°43'1515.3
2017-Feb-20 12:33N 35°16' E 139°46'1413.7
2017-Feb-20 11:33N 35°29' E 139°50'10 9.5
2017-Feb-20 10:33N 35°38' E 139°46'0 0.0
2017-Feb-20 09:23N 35°38' E 139°46'0 0.0
2017-Feb-20 08:29N 35°38' E 139°46'0 0.0
2017-Feb-20 07:17N 35°38' E 139°46'0 0.0
2017-Feb-20 06:32N 35°38' E 139°46'0 0.0
2017-Feb-20 05:29N 35°38' E 139°46'0 0.0
2017-Feb-20 04:29N 35°38' E 139°46'0 0.0
2017-Feb-20 03:32N 35°38' E 139°46'0 0.0
2017-Feb-20 02:32N 35°38' E 139°46'0 0.0
2017-Feb-20 01:32N 35°38' E 139°46'0 0.0
2017-Feb-20 00:32N 35°38' E 139°46'0 0.0
2017-Feb-19 23:32N 35°38' E 139°46'7 7.1
2017-Feb-19 22:33N 35°33' E 139°51'1514.8
2017-Feb-19 21:33N 35°19' E 139°44'1414.5
2017-Feb-19 20:34N 35°05' E 139°45'1412.8
2017-Feb-19 19:26N 34°51' E 139°52'1415.7
2017-Feb-19 18:31N 34°57' E 140°08'  
2017-Feb-16 13:17N 34°51' E 139°52'1115.8
2017-Feb-16 12:33N 34°59' E 139°43'1616.1
2017-Feb-16 11:33N 35°15' E 139°46'1212.2
2017-Feb-16 10:33N 35°27' E 139°47'1110.9
2017-Feb-16 09:33N 35°38' E 139°46'0 0.0
2017-Feb-16 08:28N 35°38' E 139°46'0 0.0
2017-Feb-16 07:22N 35°38' E 139°46'0 0.0
2017-Feb-16 06:31N 35°38' E 139°46'0 0.0
2017-Feb-16 05:28N 35°38' E 139°46'0 0.0
2017-Feb-16 04:28N 35°38' E 139°46'0 0.0
2017-Feb-16 03:28N 35°38' E 139°46'0 0.0
2017-Feb-16 02:28N 35°38' E 139°46'0 0.0
2017-Feb-16 01:28N 35°38' E 139°46'0 0.0
2017-Feb-16 00:28N 35°38' E 139°46'8 8.4
2017-Feb-15 23:33N 35°32' E 139°52'1514.5
2017-Feb-15 22:33N 35°19' E 139°44'1413.9
2017-Feb-15 21:33N 35°05' E 139°45'  
Track history (hours):
 
Tides and Currents Weather Stations Pressure Air Temp Water Temp Dewpoint Dewpoint Depression Visibility Wind Speed Wind Dir Waves Ship Positions

Shin Mei Maru

Last reported at 2017-Feb-20 14:30 UTC. Time now 2017-Feb-23 02:43 UTC.
Position N 34°50' E 139°53'.

Length 160 m; draft 7 m.

Type: Cargo ship. MMSI: 431100922.

Date/timePositionNaut miles runAvg speedWind from/ knotsBaromVisibWave heightAir tempDewpointWater temp
2017-Feb-20 14:30N 34°50' E 139°53'1314.3
2017-Feb-20 13:33N 35°01' E 139°43'1515.3
2017-Feb-20 12:33N 35°16' E 139°46'1413.7
2017-Feb-20 11:33N 35°29' E 139°50'10 9.5
2017-Feb-20 10:33N 35°38' E 139°46'0 0.0
2017-Feb-20 09:23N 35°38' E 139°46'0 0.0
2017-Feb-20 08:29N 35°38' E 139°46'0 0.0
2017-Feb-20 07:17N 35°38' E 139°46'0 0.0
2017-Feb-20 06:32N 35°38' E 139°46'0 0.0
2017-Feb-20 05:29N 35°38' E 139°46'0 0.0
2017-Feb-20 04:29N 35°38' E 139°46'0 0.0
2017-Feb-20 03:32N 35°38' E 139°46'0 0.0
2017-Feb-20 02:32N 35°38' E 139°46'0 0.0
2017-Feb-20 01:32N 35°38' E 139°46'0 0.0
2017-Feb-20 00:32N 35°38' E 139°46'0 0.0
2017-Feb-19 23:32N 35°38' E 139°46'7 7.1
2017-Feb-19 22:33N 35°33' E 139°51'1514.8
2017-Feb-19 21:33N 35°19' E 139°44'1414.5
2017-Feb-19 20:34N 35°05' E 139°45'1412.8
2017-Feb-19 19:26N 34°51' E 139°52'1415.7
2017-Feb-19 18:31N 34°57' E 140°08'  
2017-Feb-16 13:17N 34°51' E 139°52'1115.8
2017-Feb-16 12:33N 34°59' E 139°43'1616.1
2017-Feb-16 11:33N 35°15' E 139°46'1212.2
2017-Feb-16 10:33N 35°27' E 139°47'1110.9
2017-Feb-16 09:33N 35°38' E 139°46'0 0.0
2017-Feb-16 08:28N 35°38' E 139°46'0 0.0
2017-Feb-16 07:22N 35°38' E 139°46'0 0.0
2017-Feb-16 06:31N 35°38' E 139°46'0 0.0
2017-Feb-16 05:28N 35°38' E 139°46'0 0.0
2017-Feb-16 04:28N 35°38' E 139°46'0 0.0
2017-Feb-16 03:28N 35°38' E 139°46'0 0.0
2017-Feb-16 02:28N 35°38' E 139°46'0 0.0
2017-Feb-16 01:28N 35°38' E 139°46'0 0.0
2017-Feb-16 00:28N 35°38' E 139°46'8 8.4
2017-Feb-15 23:33N 35°32' E 139°52'1514.5
2017-Feb-15 22:33N 35°19' E 139°44'1413.9
2017-Feb-15 21:33N 35°05' E 139°45'  

Dump ship's entire track history